sensor_id;sensor_type;location;lat;lon;timestamp;noise_LAeq;noise_LA_min;noise_LA_max;noise_LA01;noise_LA95
68599;Laerm;18038;50.166;18.908;2023-02-28T00:02:26;46.95;45.73;51.83;;
68599;Laerm;18038;50.166;18.908;2023-02-28T00:05:35;47.77;45.68;56.92;;
68599;Laerm;18038;50.166;18.908;2023-02-28T00:08:42;46.96;45.68;48.83;;
68599;Laerm;18038;50.166;18.908;2023-02-28T00:11:48;47.77;45.64;57.36;;
68599;Laerm;18038;50.166;18.908;2023-02-28T00:14:55;47.51;45.39;58.44;;
68599;Laerm;18038;50.166;18.908;2023-02-28T00:18:02;47.39;45.66;56.85;;
68599;Laerm;18038;50.166;18.908;2023-02-28T00:21:11;47.05;45.83;49.21;;
68599;Laerm;18038;50.166;18.908;2023-02-28T00:24:17;47.14;45.65;49.81;;
68599;Laerm;18038;50.166;18.908;2023-02-28T00:27:24;46.98;45.86;48.51;;
68599;Laerm;18038;50.166;18.908;2023-02-28T00:30:30;46.97;45.75;54.09;;
68599;Laerm;18038;50.166;18.908;2023-02-28T00:33:40;46.95;45.79;49.54;;
68599;Laerm;18038;50.166;18.908;2023-02-28T00:36:49;47.10;45.74;53.16;;
68599;Laerm;18038;50.166;18.908;2023-02-28T00:39:55;48.30;45.66;60.93;;
68599;Laerm;18038;50.166;18.908;2023-02-28T00:43:02;47.45;45.73;57.91;;
68599;Laerm;18038;50.166;18.908;2023-02-28T00:46:09;47.02;45.83;48.80;;
68599;Laerm;18038;50.166;18.908;2023-02-28T00:49:15;47.53;45.84;57.67;;
68599;Laerm;18038;50.166;18.908;2023-02-28T00:52:24;47.05;45.81;48.67;;
68599;Laerm;18038;50.166;18.908;2023-02-28T00:55:30;47.05;45.82;48.49;;
68599;Laerm;18038;50.166;18.908;2023-02-28T00:58:37;47.03;45.72;48.54;;
68599;Laerm;18038;50.166;18.908;2023-02-28T01:01:45;47.53;45.52;58.52;;
68599;Laerm;18038;50.166;18.908;2023-02-28T01:04:52;47.10;45.80;48.94;;
68599;Laerm;18038;50.166;18.908;2023-02-28T01:08:02;47.10;45.75;48.65;;
68599;Laerm;18038;50.166;18.908;2023-02-28T01:11:11;47.46;45.72;56.47;;
68599;Laerm;18038;50.166;18.908;2023-02-28T01:14:18;47.60;45.76;56.77;;
68599;Laerm;18038;50.166;18.908;2023-02-28T01:17:25;47.64;45.85;58.59;;
68599;Laerm;18038;50.166;18.908;2023-02-28T01:20:32;47.04;45.80;48.61;;
68599;Laerm;18038;50.166;18.908;2023-02-28T01:23:42;47.12;45.66;51.07;;
68599;Laerm;18038;50.166;18.908;2023-02-28T01:26:48;47.37;45.76;54.66;;
68599;Laerm;18038;50.166;18.908;2023-02-28T01:29:57;47.40;45.95;56.42;;
68599;Laerm;18038;50.166;18.908;2023-02-28T01:33:03;47.18;45.96;48.92;;
68599;Laerm;18038;50.166;18.908;2023-02-28T01:36:14;47.22;45.81;48.65;;
68599;Laerm;18038;50.166;18.908;2023-02-28T01:39:23;47.29;45.92;48.60;;
68599;Laerm;18038;50.166;18.908;2023-02-28T01:42:30;47.45;45.82;49.91;;
68599;Laerm;18038;50.166;18.908;2023-02-28T01:45:36;48.00;46.22;56.40;;
68599;Laerm;18038;50.166;18.908;2023-02-28T01:48:49;47.89;46.14;57.61;;
68599;Laerm;18038;50.166;18.908;2023-02-28T01:51:57;47.40;46.16;48.77;;
68599;Laerm;18038;50.166;18.908;2023-02-28T01:55:10;47.47;46.27;48.93;;
68599;Laerm;18038;50.166;18.908;2023-02-28T01:58:18;48.14;46.33;59.20;;
68599;Laerm;18038;50.166;18.908;2023-02-28T02:01:29;47.50;46.03;49.02;;
68599;Laerm;18038;50.166;18.908;2023-02-28T02:04:44;47.44;46.08;48.94;;
68599;Laerm;18038;50.166;18.908;2023-02-28T02:08:01;47.43;46.16;49.09;;
68599;Laerm;18038;50.166;18.908;2023-02-28T02:11:20;47.79;46.13;56.49;;
68599;Laerm;18038;50.166;18.908;2023-02-28T02:14:47;47.41;46.02;48.86;;
68599;Laerm;18038;50.166;18.908;2023-02-28T02:18:05;47.61;45.98;55.79;;
68599;Laerm;18038;50.166;18.908;2023-02-28T02:21:47;47.43;46.05;48.87;;
68599;Laerm;18038;50.166;18.908;2023-02-28T02:25:28;47.46;46.35;49.05;;
68599;Laerm;18038;50.166;18.908;2023-02-28T02:29:21;48.02;46.02;57.04;;
68599;Laerm;18038;50.166;18.908;2023-02-28T02:33:10;48.04;46.08;69.09;;
68599;Laerm;18038;50.166;18.908;2023-02-28T02:36:33;47.88;46.08;58.52;;
68599;Laerm;18038;50.166;18.908;2023-02-28T02:39:53;48.09;46.30;63.07;;
68599;Laerm;18038;50.166;18.908;2023-02-28T02:43:21;47.74;46.30;50.95;;
68599;Laerm;18038;50.166;18.908;2023-02-28T02:46:37;47.94;46.34;56.64;;
68599;Laerm;18038;50.166;18.908;2023-02-28T02:49:52;47.95;46.38;53.39;;
68599;Laerm;18038;50.166;18.908;2023-02-28T02:53:07;48.34;46.33;60.14;;
68599;Laerm;18038;50.166;18.908;2023-02-28T02:56:23;48.17;46.18;58.28;;
68599;Laerm;18038;50.166;18.908;2023-02-28T02:59:35;49.97;46.45;65.40;;
68599;Laerm;18038;50.166;18.908;2023-02-28T03:02:47;48.32;46.38;57.88;;
68599;Laerm;18038;50.166;18.908;2023-02-28T03:05:57;48.59;46.45;60.44;;
68599;Laerm;18038;50.166;18.908;2023-02-28T03:09:10;48.42;46.39;59.13;;
68599;Laerm;18038;50.166;18.908;2023-02-28T03:12:33;48.97;46.30;58.36;;
68599;Laerm;18038;50.166;18.908;2023-02-28T03:16:07;48.28;46.54;56.41;;
68599;Laerm;18038;50.166;18.908;2023-02-28T03:19:55;49.01;46.46;60.50;;
68599;Laerm;18038;50.166;18.908;2023-02-28T03:23:17;49.63;46.55;63.98;;
68599;Laerm;18038;50.166;18.908;2023-02-28T03:26:29;47.90;46.56;49.19;;
68599;Laerm;18038;50.166;18.908;2023-02-28T03:29:43;48.90;46.55;58.34;;
68599;Laerm;18038;50.166;18.908;2023-02-28T03:32:59;48.79;46.71;58.78;;
68599;Laerm;18038;50.166;18.908;2023-02-28T03:36:17;48.20;46.50;54.56;;
68599;Laerm;18038;50.166;18.908;2023-02-28T03:39:35;48.23;46.56;56.65;;
68599;Laerm;18038;50.166;18.908;2023-02-28T03:42:55;47.90;46.72;49.36;;
68599;Laerm;18038;50.166;18.908;2023-02-28T03:46:13;48.69;46.55;57.41;;
68599;Laerm;18038;50.166;18.908;2023-02-28T03:49:34;49.38;46.81;58.34;;
68599;Laerm;18038;50.166;18.908;2023-02-28T03:52:48;48.93;46.77;58.40;;
68599;Laerm;18038;50.166;18.908;2023-02-28T03:56:05;49.26;46.52;60.12;;
68599;Laerm;18038;50.166;18.908;2023-02-28T03:59:25;49.10;46.59;56.79;;
68599;Laerm;18038;50.166;18.908;2023-02-28T04:02:39;49.56;46.84;59.27;;
68599;Laerm;18038;50.166;18.908;2023-02-28T04:05:52;50.42;46.96;61.18;;
68599;Laerm;18038;50.166;18.908;2023-02-28T04:08:59;50.75;46.95;60.97;;
68599;Laerm;18038;50.166;18.908;2023-02-28T04:12:07;50.14;46.91;63.04;;
68599;Laerm;18038;50.166;18.908;2023-02-28T04:15:17;50.37;46.97;59.43;;
68599;Laerm;18038;50.166;18.908;2023-02-28T04:18:25;50.96;46.84;60.99;;
68599;Laerm;18038;50.166;18.908;2023-02-28T04:21:35;51.18;46.96;59.98;;
68599;Laerm;18038;50.166;18.908;2023-02-28T04:24:41;52.03;47.02;64.64;;
68599;Laerm;18038;50.166;18.908;2023-02-28T04:27:53;50.63;47.09;59.69;;
68599;Laerm;18038;50.166;18.908;2023-02-28T04:31:05;51.01;47.06;61.49;;
68599;Laerm;18038;50.166;18.908;2023-02-28T04:34:16;51.93;47.35;59.66;;
68599;Laerm;18038;50.166;18.908;2023-02-28T04:37:26;52.24;47.61;61.69;;
68599;Laerm;18038;50.166;18.908;2023-02-28T04:40:32;51.05;47.38;58.81;;
68599;Laerm;18038;50.166;18.908;2023-02-28T04:43:38;50.80;47.29;59.02;;
68599;Laerm;18038;50.166;18.908;2023-02-28T04:46:49;50.82;47.07;59.86;;
68599;Laerm;18038;50.166;18.908;2023-02-28T04:49:55;50.15;47.17;59.29;;
68599;Laerm;18038;50.166;18.908;2023-02-28T04:53:01;52.69;47.15;61.29;;
68599;Laerm;18038;50.166;18.908;2023-02-28T04:56:11;51.99;47.16;63.73;;
68599;Laerm;18038;50.166;18.908;2023-02-28T04:59:18;50.98;47.11;58.85;;
68599;Laerm;18038;50.166;18.908;2023-02-28T05:02:27;50.19;47.33;60.49;;
68599;Laerm;18038;50.166;18.908;2023-02-28T05:05:33;50.96;47.13;59.20;;
68599;Laerm;18038;50.166;18.908;2023-02-28T05:08:40;51.10;47.35;59.61;;
68599;Laerm;18038;50.166;18.908;2023-02-28T05:11:47;52.08;47.41;63.98;;
68599;Laerm;18038;50.166;18.908;2023-02-28T05:14:53;51.41;47.23;62.90;;
68599;Laerm;18038;50.166;18.908;2023-02-28T05:18:02;52.42;47.40;64.02;;
68599;Laerm;18038;50.166;18.908;2023-02-28T05:21:30;51.37;47.31;60.48;;
68599;Laerm;18038;50.166;18.908;2023-02-28T05:24:37;51.51;47.22;61.65;;
68599;Laerm;18038;50.166;18.908;2023-02-28T05:27:49;54.61;47.67;72.65;;
68599;Laerm;18038;50.166;18.908;2023-02-28T05:30:57;53.28;47.53;67.40;;
68599;Laerm;18038;50.166;18.908;2023-02-28T05:34:14;52.25;47.45;60.90;;
68599;Laerm;18038;50.166;18.908;2023-02-28T05:37:21;53.52;47.63;61.17;;
68599;Laerm;18038;50.166;18.908;2023-02-28T05:40:27;53.75;47.48;62.90;;
68599;Laerm;18038;50.166;18.908;2023-02-28T05:43:34;53.74;47.37;60.41;;
68599;Laerm;18038;50.166;18.908;2023-02-28T05:46:40;53.95;47.97;61.70;;
68599;Laerm;18038;50.166;18.908;2023-02-28T05:49:49;53.15;47.94;62.88;;
68599;Laerm;18038;50.166;18.908;2023-02-28T05:52:56;52.81;48.19;58.77;;
68599;Laerm;18038;50.166;18.908;2023-02-28T05:56:04;54.79;48.31;63.22;;
68599;Laerm;18038;50.166;18.908;2023-02-28T05:59:11;57.64;48.68;64.32;;
68599;Laerm;18038;50.166;18.908;2023-02-28T06:02:18;53.54;48.03;59.47;;
68599;Laerm;18038;50.166;18.908;2023-02-28T06:05:27;55.77;47.85;83.00;;
68599;Laerm;18038;50.166;18.908;2023-02-28T06:08:34;52.33;47.39;62.86;;
68599;Laerm;18038;50.166;18.908;2023-02-28T06:11:40;53.62;47.88;62.58;;
68599;Laerm;18038;50.166;18.908;2023-02-28T06:14:46;53.18;47.49;66.94;;
68599;Laerm;18038;50.166;18.908;2023-02-28T06:17:52;53.47;47.38;61.09;;
68599;Laerm;18038;50.166;18.908;2023-02-28T06:21:02;53.13;47.74;60.47;;
68599;Laerm;18038;50.166;18.908;2023-02-28T06:24:09;53.33;47.71;61.28;;
68599;Laerm;18038;50.166;18.908;2023-02-28T06:27:16;55.21;47.60;76.87;;
68599;Laerm;18038;50.166;18.908;2023-02-28T06:30:22;53.68;48.23;63.57;;
68599;Laerm;18038;50.166;18.908;2023-02-28T06:33:31;53.09;47.93;61.69;;
68599;Laerm;18038;50.166;18.908;2023-02-28T06:36:41;53.13;47.95;63.79;;
68599;Laerm;18038;50.166;18.908;2023-02-28T06:39:52;53.70;47.62;62.63;;
68599;Laerm;18038;50.166;18.908;2023-02-28T06:42:58;55.58;48.21;65.38;;
68599;Laerm;18038;50.166;18.908;2023-02-28T06:46:24;55.36;49.09;62.63;;
68599;Laerm;18038;50.166;18.908;2023-02-28T06:49:30;54.15;48.82;62.98;;
68599;Laerm;18038;50.166;18.908;2023-02-28T06:52:40;52.98;47.61;58.62;;
68599;Laerm;18038;50.166;18.908;2023-02-28T06:55:46;53.23;47.32;61.07;;
68599;Laerm;18038;50.166;18.908;2023-02-28T06:59:00;53.07;47.52;61.01;;
68599;Laerm;18038;50.166;18.908;2023-02-28T07:02:12;54.28;47.06;62.47;;
68599;Laerm;18038;50.166;18.908;2023-02-28T07:05:19;52.91;46.86;64.29;;
68599;Laerm;18038;50.166;18.908;2023-02-28T07:08:28;54.71;47.36;68.92;;
68599;Laerm;18038;50.166;18.908;2023-02-28T07:11:35;54.64;47.67;67.35;;
68599;Laerm;18038;50.166;18.908;2023-02-28T07:14:41;53.78;47.35;66.74;;
68599;Laerm;18038;50.166;18.908;2023-02-28T07:17:48;53.82;47.79;61.90;;
68599;Laerm;18038;50.166;18.908;2023-02-28T07:20:53;53.80;47.32;65.12;;
68599;Laerm;18038;50.166;18.908;2023-02-28T07:24:04;53.34;46.97;63.62;;
68599;Laerm;18038;50.166;18.908;2023-02-28T07:27:10;52.92;46.92;61.90;;
68599;Laerm;18038;50.166;18.908;2023-02-28T07:30:29;55.16;47.56;65.14;;
68599;Laerm;18038;50.166;18.908;2023-02-28T07:33:36;53.60;46.95;64.56;;
68599;Laerm;18038;50.166;18.908;2023-02-28T07:36:44;54.08;48.17;65.44;;
68599;Laerm;18038;50.166;18.908;2023-02-28T07:39:54;53.48;47.34;65.92;;
68599;Laerm;18038;50.166;18.908;2023-02-28T07:43:02;52.58;46.80;63.05;;
68599;Laerm;18038;50.166;18.908;2023-02-28T07:46:12;52.31;46.60;60.13;;
68599;Laerm;18038;50.166;18.908;2023-02-28T07:49:20;53.24;46.61;62.79;;
68599;Laerm;18038;50.166;18.908;2023-02-28T07:52:26;53.63;46.87;65.89;;
68599;Laerm;18038;50.166;18.908;2023-02-28T07:55:36;54.02;46.64;78.10;;
68599;Laerm;18038;50.166;18.908;2023-02-28T07:58:42;52.22;46.73;58.43;;
68599;Laerm;18038;50.166;18.908;2023-02-28T08:01:48;51.93;46.50;61.26;;
68599;Laerm;18038;50.166;18.908;2023-02-28T08:04:55;52.34;46.54;59.90;;
68599;Laerm;18038;50.166;18.908;2023-02-28T08:08:05;53.73;46.81;61.87;;
68599;Laerm;18038;50.166;18.908;2023-02-28T08:11:14;52.62;46.58;60.59;;
68599;Laerm;18038;50.166;18.908;2023-02-28T08:14:22;52.84;46.75;61.82;;
68599;Laerm;18038;50.166;18.908;2023-02-28T08:17:28;52.73;46.54;62.35;;
68599;Laerm;18038;50.166;18.908;2023-02-28T08:20:38;53.33;46.69;64.28;;
68599;Laerm;18038;50.166;18.908;2023-02-28T08:23:46;51.50;46.51;61.56;;
68599;Laerm;18038;50.166;18.908;2023-02-28T08:26:56;52.13;46.70;59.62;;
68599;Laerm;18038;50.166;18.908;2023-02-28T08:30:04;51.95;46.28;62.55;;
68599;Laerm;18038;50.166;18.908;2023-02-28T08:33:12;51.80;46.34;64.43;;
68599;Laerm;18038;50.166;18.908;2023-02-28T08:36:19;51.65;46.45;61.44;;
68599;Laerm;18038;50.166;18.908;2023-02-28T08:39:26;52.43;46.50;59.56;;
68599;Laerm;18038;50.166;18.908;2023-02-28T08:42:35;51.41;46.37;61.92;;
68599;Laerm;18038;50.166;18.908;2023-02-28T08:45:42;51.48;46.43;62.55;;
68599;Laerm;18038;50.166;18.908;2023-02-28T08:48:53;51.98;46.37;67.02;;
68599;Laerm;18038;50.166;18.908;2023-02-28T08:52:06;51.74;46.10;72.04;;
68599;Laerm;18038;50.166;18.908;2023-02-28T08:55:16;51.20;46.51;60.11;;
68599;Laerm;18038;50.166;18.908;2023-02-28T08:58:26;51.28;46.90;57.82;;
68599;Laerm;18038;50.166;18.908;2023-02-28T09:01:32;53.13;46.73;68.32;;
68599;Laerm;18038;50.166;18.908;2023-02-28T09:04:41;51.64;46.20;62.31;;
68599;Laerm;18038;50.166;18.908;2023-02-28T09:07:49;52.39;46.32;62.92;;
68599;Laerm;18038;50.166;18.908;2023-02-28T09:10:57;53.10;46.37;73.79;;
68599;Laerm;18038;50.166;18.908;2023-02-28T09:14:14;51.85;46.56;58.84;;
68599;Laerm;18038;50.166;18.908;2023-02-28T09:17:21;52.72;46.66;65.05;;
68599;Laerm;18038;50.166;18.908;2023-02-28T09:20:32;51.54;46.66;61.31;;
68599;Laerm;18038;50.166;18.908;2023-02-28T09:23:39;52.44;46.69;67.69;;
68599;Laerm;18038;50.166;18.908;2023-02-28T09:26:45;53.82;46.83;65.70;;
68599;Laerm;18038;50.166;18.908;2023-02-28T09:30:12;52.86;46.58;63.90;;
68599;Laerm;18038;50.166;18.908;2023-02-28T09:33:20;51.19;46.08;60.35;;
68599;Laerm;18038;50.166;18.908;2023-02-28T09:36:28;51.51;46.39;65.08;;
68599;Laerm;18038;50.166;18.908;2023-02-28T09:39:47;52.44;46.30;67.17;;
68599;Laerm;18038;50.166;18.908;2023-02-28T09:42:57;51.50;46.33;63.20;;
68599;Laerm;18038;50.166;18.908;2023-02-28T09:46:29;53.78;46.39;72.97;;
68599;Laerm;18038;50.166;18.908;2023-02-28T09:49:44;50.58;46.19;60.90;;
68599;Laerm;18038;50.166;18.908;2023-02-28T09:52:55;50.96;46.73;62.84;;
68599;Laerm;18038;50.166;18.908;2023-02-28T09:56:08;54.05;46.78;69.80;;
68599;Laerm;18038;50.166;18.908;2023-02-28T09:59:31;54.98;47.13;70.85;;
68599;Laerm;18038;50.166;18.908;2023-02-28T10:06:33;52.09;46.25;65.15;;
68599;Laerm;18038;50.166;18.908;2023-02-28T10:09:42;54.82;46.68;67.63;;
68599;Laerm;18038;50.166;18.908;2023-02-28T10:12:54;53.07;46.54;69.96;;
68599;Laerm;18038;50.166;18.908;2023-02-28T10:16:09;53.02;46.81;73.58;;
68599;Laerm;18038;50.166;18.908;2023-02-28T10:19:27;51.29;46.34;64.41;;
68599;Laerm;18038;50.166;18.908;2023-02-28T10:22:52;53.44;46.62;65.72;;
68599;Laerm;18038;50.166;18.908;2023-02-28T10:26:09;52.47;46.66;68.17;;
68599;Laerm;18038;50.166;18.908;2023-02-28T10:29:19;53.70;46.35;71.85;;
68599;Laerm;18038;50.166;18.908;2023-02-28T10:32:30;53.04;46.47;65.78;;
68599;Laerm;18038;50.166;18.908;2023-02-28T10:35:40;52.11;46.07;60.25;;
68599;Laerm;18038;50.166;18.908;2023-02-28T10:38:48;52.91;46.44;65.15;;
68599;Laerm;18038;50.166;18.908;2023-02-28T10:41:55;58.24;47.23;81.97;;
68599;Laerm;18038;50.166;18.908;2023-02-28T10:45:13;55.61;46.79;77.10;;
68599;Laerm;18038;50.166;18.908;2023-02-28T10:48:33;52.49;46.35;67.32;;
68599;Laerm;18038;50.166;18.908;2023-02-28T10:51:42;52.43;46.76;60.82;;
68599;Laerm;18038;50.166;18.908;2023-02-28T10:54:49;52.57;46.51;63.78;;
68599;Laerm;18038;50.166;18.908;2023-02-28T10:57:55;52.20;46.36;67.24;;
68599;Laerm;18038;50.166;18.908;2023-02-28T11:01:02;53.51;46.43;69.64;;
68599;Laerm;18038;50.166;18.908;2023-02-28T11:04:23;54.61;47.60;61.87;;
68599;Laerm;18038;50.166;18.908;2023-02-28T11:07:51;52.99;46.48;62.35;;
68599;Laerm;18038;50.166;18.908;2023-02-28T11:11:04;51.61;46.64;60.21;;
68599;Laerm;18038;50.166;18.908;2023-02-28T11:14:21;52.84;46.64;65.02;;
68599;Laerm;18038;50.166;18.908;2023-02-28T11:17:31;62.17;48.91;69.50;;
68599;Laerm;18038;50.166;18.908;2023-02-28T11:20:39;63.38;54.31;69.71;;
68599;Laerm;18038;50.166;18.908;2023-02-28T11:23:55;54.89;47.88;65.75;;
68599;Laerm;18038;50.166;18.908;2023-02-28T11:27:05;52.28;46.65;64.30;;
68599;Laerm;18038;50.166;18.908;2023-02-28T11:30:35;52.21;46.87;65.34;;
68599;Laerm;18038;50.166;18.908;2023-02-28T11:33:47;51.98;46.53;61.11;;
68599;Laerm;18038;50.166;18.908;2023-02-28T11:36:57;51.38;46.42;65.97;;
68599;Laerm;18038;50.166;18.908;2023-02-28T11:40:14;52.14;46.45;68.93;;
68599;Laerm;18038;50.166;18.908;2023-02-28T11:43:44;51.78;46.46;59.91;;
68599;Laerm;18038;50.166;18.908;2023-02-28T11:47:05;51.20;46.24;63.01;;
68599;Laerm;18038;50.166;18.908;2023-02-28T11:50:32;52.79;46.45;64.81;;
68599;Laerm;18038;50.166;18.908;2023-02-28T11:54:08;51.30;46.66;64.47;;
68599;Laerm;18038;50.166;18.908;2023-02-28T11:57:39;51.88;46.34;69.96;;
68599;Laerm;18038;50.166;18.908;2023-02-28T12:01:12;52.77;46.42;61.33;;
68599;Laerm;18038;50.166;18.908;2023-02-28T12:04:34;52.50;46.21;65.13;;
68599;Laerm;18038;50.166;18.908;2023-02-28T12:08:06;51.89;46.38;60.13;;
68599;Laerm;18038;50.166;18.908;2023-02-28T12:11:47;51.87;46.51;61.39;;
68599;Laerm;18038;50.166;18.908;2023-02-28T12:15:25;54.22;47.59;60.54;;
68599;Laerm;18038;50.166;18.908;2023-02-28T12:19:00;54.84;47.21;61.15;;
68599;Laerm;18038;50.166;18.908;2023-02-28T12:22:28;73.27;54.66;82.48;;
68599;Laerm;18038;50.166;18.908;2023-02-28T12:25:52;60.51;47.94;73.66;;
68599;Laerm;18038;50.166;18.908;2023-02-28T12:29:16;52.41;46.71;62.25;;
68599;Laerm;18038;50.166;18.908;2023-02-28T12:32:33;51.81;46.94;60.13;;
68599;Laerm;18038;50.166;18.908;2023-02-28T12:35:55;51.82;45.89;61.09;;
68599;Laerm;18038;50.166;18.908;2023-02-28T12:39:09;52.42;46.79;67.29;;
68599;Laerm;18038;50.166;18.908;2023-02-28T12:42:26;52.94;46.83;71.32;;
68599;Laerm;18038;50.166;18.908;2023-02-28T12:45:44;52.20;46.67;60.37;;
68599;Laerm;18038;50.166;18.908;2023-02-28T12:49:02;52.48;46.94;60.73;;
68599;Laerm;18038;50.166;18.908;2023-02-28T12:52:25;51.51;46.18;59.66;;
68599;Laerm;18038;50.166;18.908;2023-02-28T12:55:48;52.32;46.43;67.27;;
68599;Laerm;18038;50.166;18.908;2023-02-28T12:59:03;53.97;46.58;71.71;;
68599;Laerm;18038;50.166;18.908;2023-02-28T13:02:49;52.92;46.51;66.65;;
68599;Laerm;18038;50.166;18.908;2023-02-28T13:10:03;52.18;46.69;67.29;;
68599;Laerm;18038;50.166;18.908;2023-02-28T13:13:18;54.12;46.43;67.19;;
68599;Laerm;18038;50.166;18.908;2023-02-28T13:16:56;53.08;46.44;62.79;;
68599;Laerm;18038;50.166;18.908;2023-02-28T13:20:03;53.82;46.79;62.27;;
68599;Laerm;18038;50.166;18.908;2023-02-28T13:23:58;52.18;45.93;61.17;;
68599;Laerm;18038;50.166;18.908;2023-02-28T13:27:38;53.27;46.89;60.97;;
68599;Laerm;18038;50.166;18.908;2023-02-28T13:31:04;52.32;46.23;61.50;;
68599;Laerm;18038;50.166;18.908;2023-02-28T13:34:16;54.43;46.47;68.74;;
68599;Laerm;18038;50.166;18.908;2023-02-28T13:37:42;53.31;47.86;62.46;;
68599;Laerm;18038;50.166;18.908;2023-02-28T13:40:50;52.48;47.25;62.30;;
68599;Laerm;18038;50.166;18.908;2023-02-28T13:44:06;54.90;47.51;68.66;;
68599;Laerm;18038;50.166;18.908;2023-02-28T13:47:28;52.60;46.45;69.94;;
68599;Laerm;18038;50.166;18.908;2023-02-28T13:50:37;51.34;46.61;66.79;;
68599;Laerm;18038;50.166;18.908;2023-02-28T13:54:04;53.15;46.89;63.53;;
68599;Laerm;18038;50.166;18.908;2023-02-28T13:57:35;52.56;47.06;61.56;;
68599;Laerm;18038;50.166;18.908;2023-02-28T14:01:36;53.39;46.42;61.74;;
68599;Laerm;18038;50.166;18.908;2023-02-28T14:05:01;53.64;47.00;64.26;;
68599;Laerm;18038;50.166;18.908;2023-02-28T14:08:17;52.93;46.50;60.66;;
68599;Laerm;18038;50.166;18.908;2023-02-28T14:11:31;54.05;46.52;68.48;;
68599;Laerm;18038;50.166;18.908;2023-02-28T14:14:56;52.99;47.10;60.87;;
68599;Laerm;18038;50.166;18.908;2023-02-28T14:18:21;53.17;46.98;63.32;;
68599;Laerm;18038;50.166;18.908;2023-02-28T14:21:33;53.63;47.12;65.01;;
68599;Laerm;18038;50.166;18.908;2023-02-28T14:25:09;52.73;46.78;61.06;;
68599;Laerm;18038;50.166;18.908;2023-02-28T14:28:36;53.30;47.22;63.62;;
68599;Laerm;18038;50.166;18.908;2023-02-28T14:32:01;53.58;47.41;66.36;;
68599;Laerm;18038;50.166;18.908;2023-02-28T14:35:53;52.91;46.58;61.59;;
68599;Laerm;18038;50.166;18.908;2023-02-28T14:39:15;54.47;47.13;69.32;;
68599;Laerm;18038;50.166;18.908;2023-02-28T14:42:34;52.69;46.69;62.14;;
68599;Laerm;18038;50.166;18.908;2023-02-28T14:45:41;53.22;47.00;63.87;;
68599;Laerm;18038;50.166;18.908;2023-02-28T14:48:49;53.36;46.84;64.08;;
68599;Laerm;18038;50.166;18.908;2023-02-28T14:52:14;53.36;47.10;64.70;;
68599;Laerm;18038;50.166;18.908;2023-02-28T14:55:26;52.69;46.35;61.17;;
68599;Laerm;18038;50.166;18.908;2023-02-28T14:58:34;51.94;46.31;60.32;;
68599;Laerm;18038;50.166;18.908;2023-02-28T15:01:40;52.40;46.37;63.34;;
68599;Laerm;18038;50.166;18.908;2023-02-28T15:04:56;52.94;46.48;62.41;;
68599;Laerm;18038;50.166;18.908;2023-02-28T15:08:14;52.10;46.72;60.99;;
68599;Laerm;18038;50.166;18.908;2023-02-28T15:11:21;52.85;46.64;59.01;;
68599;Laerm;18038;50.166;18.908;2023-02-28T15:14:27;53.28;47.06;64.83;;
68599;Laerm;18038;50.166;18.908;2023-02-28T15:17:36;53.57;46.25;65.13;;
68599;Laerm;18038;50.166;18.908;2023-02-28T15:20:44;52.64;46.42;62.00;;
68599;Laerm;18038;50.166;18.908;2023-02-28T15:24:00;51.72;46.49;59.32;;
68599;Laerm;18038;50.166;18.908;2023-02-28T15:27:12;52.06;46.37;58.87;;
68599;Laerm;18038;50.166;18.908;2023-02-28T15:30:28;52.94;46.17;63.88;;
68599;Laerm;18038;50.166;18.908;2023-02-28T15:33:35;53.05;46.73;62.51;;
68599;Laerm;18038;50.166;18.908;2023-02-28T15:36:42;52.82;46.46;60.97;;
68599;Laerm;18038;50.166;18.908;2023-02-28T15:39:53;52.96;47.10;64.72;;
68599;Laerm;18038;50.166;18.908;2023-02-28T15:43:06;52.66;45.87;65.88;;
68599;Laerm;18038;50.166;18.908;2023-02-28T15:46:14;52.01;45.81;63.42;;
68599;Laerm;18038;50.166;18.908;2023-02-28T15:49:22;51.52;45.98;62.99;;
68599;Laerm;18038;50.166;18.908;2023-02-28T15:52:39;53.82;46.36;73.99;;
68599;Laerm;18038;50.166;18.908;2023-02-28T15:56:00;51.44;46.03;60.40;;
68599;Laerm;18038;50.166;18.908;2023-02-28T15:59:15;53.84;46.21;75.32;;
68599;Laerm;18038;50.166;18.908;2023-02-28T16:02:31;52.02;46.36;64.70;;
68599;Laerm;18038;50.166;18.908;2023-02-28T16:05:38;53.24;46.55;67.08;;
68599;Laerm;18038;50.166;18.908;2023-02-28T16:08:45;51.37;46.16;64.21;;
68599;Laerm;18038;50.166;18.908;2023-02-28T16:12:01;53.31;46.65;62.90;;
68599;Laerm;18038;50.166;18.908;2023-02-28T16:15:21;51.05;46.54;58.43;;
68599;Laerm;18038;50.166;18.908;2023-02-28T16:18:28;52.03;46.29;65.86;;
68599;Laerm;18038;50.166;18.908;2023-02-28T16:21:40;51.45;46.32;59.88;;
68599;Laerm;18038;50.166;18.908;2023-02-28T16:24:46;51.91;46.31;60.12;;
68599;Laerm;18038;50.166;18.908;2023-02-28T16:27:58;51.82;46.68;61.24;;
68599;Laerm;18038;50.166;18.908;2023-02-28T16:31:15;51.45;46.35;65.91;;
68599;Laerm;18038;50.166;18.908;2023-02-28T16:34:26;51.39;46.26;59.87;;
68599;Laerm;18038;50.166;18.908;2023-02-28T16:37:33;51.69;45.97;62.36;;
68599;Laerm;18038;50.166;18.908;2023-02-28T16:40:42;52.22;46.42;60.85;;
68599;Laerm;18038;50.166;18.908;2023-02-28T16:43:54;54.69;47.94;69.25;;
68599;Laerm;18038;50.166;18.908;2023-02-28T16:47:11;53.71;47.07;63.04;;
68599;Laerm;18038;50.166;18.908;2023-02-28T16:50:25;52.60;46.12;68.07;;
68599;Laerm;18038;50.166;18.908;2023-02-28T16:53:32;51.91;46.63;63.18;;
68599;Laerm;18038;50.166;18.908;2023-02-28T16:56:46;51.76;46.09;70.17;;
68599;Laerm;18038;50.166;18.908;2023-02-28T16:59:57;50.74;46.29;58.91;;
68599;Laerm;18038;50.166;18.908;2023-02-28T17:03:03;51.99;46.84;63.98;;
68599;Laerm;18038;50.166;18.908;2023-02-28T17:06:20;51.25;46.31;61.65;;
68599;Laerm;18038;50.166;18.908;2023-02-28T17:09:27;52.17;46.86;62.92;;
68599;Laerm;18038;50.166;18.908;2023-02-28T17:12:45;51.19;46.15;60.84;;
68599;Laerm;18038;50.166;18.908;2023-02-28T17:15:53;51.96;46.07;76.19;;
68599;Laerm;18038;50.166;18.908;2023-02-28T17:19:05;51.35;46.95;58.70;;
68599;Laerm;18038;50.166;18.908;2023-02-28T17:22:11;49.53;45.99;57.56;;
68599;Laerm;18038;50.166;18.908;2023-02-28T17:25:19;51.31;46.43;62.43;;
68599;Laerm;18038;50.166;18.908;2023-02-28T17:28:26;50.65;46.12;59.51;;
68599;Laerm;18038;50.166;18.908;2023-02-28T17:31:43;53.94;46.43;77.33;;
68599;Laerm;18038;50.166;18.908;2023-02-28T17:34:50;52.20;46.43;65.91;;
68599;Laerm;18038;50.166;18.908;2023-02-28T17:37:57;51.84;46.09;63.38;;
68599;Laerm;18038;50.166;18.908;2023-02-28T17:41:11;51.65;46.56;62.66;;
68599;Laerm;18038;50.166;18.908;2023-02-28T17:44:18;51.62;46.37;66.51;;
68599;Laerm;18038;50.166;18.908;2023-02-28T17:47:27;52.70;46.67;71.43;;
68599;Laerm;18038;50.166;18.908;2023-02-28T17:50:33;51.98;45.93;67.64;;
68599;Laerm;18038;50.166;18.908;2023-02-28T17:53:39;51.09;46.68;58.69;;
68599;Laerm;18038;50.166;18.908;2023-02-28T17:56:47;50.76;46.19;58.93;;